Time;durP1;ratioP1;P1;durP2;ratioP2;P2;SDS_P1;SDS_P2;PMS_P1;PMS_P2;Temp;Humidity;BMP_temperature;BMP_pressure;BME280_temperature;BME280_humidity;BME280_pressure;Samples;Min_cycle;Max_cycle;Signal;HPM_P1;HPM_P2
2022/05/25 00:05:54;;;;;;;2.90;1.95;;;24.00;76.70;;;;;;10941013;32;20350;-76
2022/05/25 00:11:56;;;;;;;2.40;1.70;;;23.90;77.30;;;;;;10940881;32;20073;-75
2022/05/25 00:17:58;;;;;;;2.12;1.70;;;23.90;77.60;;;;;;10497170;32;12181866;-75
2022/05/25 00:24:02;;;;;;;2.70;1.75;;;23.90;77.20;;;;;;10826812;32;20028;-74
2022/05/25 00:30:05;;;;;;;2.30;1.62;;;23.90;77.60;;;;;;10831110;32;20400;-74
2022/05/25 00:36:07;;;;;;;2.72;1.42;;;23.90;77.70;;;;;;10831911;32;20305;-76
2022/05/25 00:42:09;;;;;;;4.35;2.08;;;23.80;78.10;;;;;;10871946;32;20030;-76
2022/05/25 00:48:24;;;;;;;3.35;1.50;;;23.80;78.00;;;;;;10946990;32;20019;-74
2022/05/25 00:54:30;;;;;;;3.30;2.05;;;23.60;78.10;;;;;;10943327;32;20374;-76
2022/05/25 01:00:32;;;;;;;2.22;1.80;;;23.50;78.10;;;;;;10942229;32;20022;-74
2022/05/25 01:07:05;;;;;;;2.72;1.77;;;23.50;78.40;;;;;;10931230;32;20065;-75
2022/05/25 01:13:58;;;;;;;3.17;1.90;;;23.50;78.10;;;;;;10950470;27;20427;-75
2022/05/25 01:20:16;;;;;;;3.53;1.98;;;23.40;78.10;;;;;;10857292;32;20057;-75
2022/05/25 01:26:47;;;;;;;2.40;1.70;;;23.30;78.40;;;;;;10866318;32;20348;-75
2022/05/25 01:33:08;;;;;;;2.15;1.77;;;23.30;78.40;;;;;;10866452;32;20032;-74
2022/05/25 01:39:19;;;;;;;1.70;1.55;;;23.20;78.40;;;;;;10865964;32;20343;-75
2022/05/25 01:45:24;;;;;;;2.53;1.92;;;23.20;78.60;;;;;;10869971;32;20389;-76
2022/05/25 01:51:32;;;;;;;1.58;1.42;;;23.20;78.70;;;;;;10869679;32;20015;-73
2022/05/25 01:57:56;;;;;;;3.50;2.30;;;23.20;79.00;;;;;;10852143;32;20336;-76
2022/05/25 02:10:47;;;;;;;7.05;2.55;;;23.00;79.40;;;;;;10828330;32;20028;-77
2022/05/25 02:17:08;;;;;;;8.07;2.72;;;23.00;79.60;;;;;;10828302;32;20416;-74
2022/05/25 02:23:25;;;;;;;2.95;1.92;;;23.00;79.80;;;;;;10828394;32;20028;-74
2022/05/25 02:29:41;;;;;;;3.33;2.05;;;23.00;80.00;;;;;;10825263;32;20060;-74
2022/05/25 02:35:46;;;;;;;4.80;2.47;;;23.00;79.90;;;;;;10862142;32;20054;-74
2022/05/25 02:41:51;;;;;;;4.43;2.45;;;23.00;79.70;;;;;;10867691;32;20082;-75
2022/05/25 02:47:54;;;;;;;6.53;2.78;;;23.00;79.50;;;;;;10867321;32;20046;-76
2022/05/25 02:53:56;;;;;;;3.33;2.37;;;23.00;79.70;;;;;;10867599;32;20016;-76
2022/05/25 02:59:58;;;;;;;1.87;1.17;;;23.00;79.80;;;;;;10865046;32;20317;-78
2022/05/25 03:06:00;;;;;;;3.65;1.80;;;23.00;79.90;;;;;;10853922;32;20047;-75
2022/05/25 03:12:07;;;;;;;5.47;2.33;;;23.00;80.10;;;;;;10866985;32;20049;-75
2022/05/25 03:18:09;;;;;;;3.80;2.25;;;23.00;80.30;;;;;;10853788;32;20042;-75
2022/05/25 03:24:12;;;;;;;4.37;1.60;;;23.10;80.20;;;;;;10866951;32;20332;-75
2022/05/25 03:30:17;;;;;;;2.85;1.87;;;23.10;80.00;;;;;;10863581;32;20043;-76
2022/05/25 03:36:39;;;;;;;2.92;2.08;;;23.10;80.20;;;;;;10864758;32;20105;-75
2022/05/25 03:42:44;;;;;;;4.37;2.47;;;23.00;80.10;;;;;;10866663;32;20016;-76
2022/05/25 03:48:46;;;;;;;2.80;2.12;;;23.00;80.20;;;;;;10866494;32;20377;-74
2022/05/25 03:54:50;;;;;;;5.28;1.95;;;22.90;80.00;;;;;;10866374;32;20020;-76
2022/05/25 04:00:52;;;;;;;4.30;2.50;;;23.00;79.40;;;;;;10856256;32;20019;-76
2022/05/25 04:07:15;;;;;;;;;;;23.00;79.50;;;;;;10873566;32;20024;-74
2022/05/25 04:13:19;;;;;;;3.17;2.10;;;23.10;79.50;;;;;;10873151;32;19955;-75
2022/05/25 04:19:21;;;;;;;4.45;2.70;;;22.90;80.00;;;;;;10859428;32;20039;-74
2022/05/25 04:25:25;;;;;;;6.12;2.45;;;23.00;80.40;;;;;;10871968;32;20039;-74
2022/05/25 04:31:27;;;;;;;15.50;2.85;;;23.00;80.40;;;;;;10872314;32;20058;-74
2022/05/25 04:43:50;;;;;;;3.30;2.15;;;23.20;80.10;;;;;;10872022;32;20384;-74
2022/05/25 04:49:52;;;;;;;3.40;2.10;;;23.10;80.20;;;;;;10871756;32;20023;-74
2022/05/25 05:02:39;;;;;;;2.87;2.00;;;23.10;80.30;;;;;;10871309;32;20050;-77
2022/05/25 05:08:43;;;;;;;3.83;2.22;;;23.20;80.40;;;;;;10858113;32;20054;-76
2022/05/25 05:15:12;;;;;;;2.67;1.60;;;23.10;80.00;;;;;;10860814;32;20039;-75
2022/05/25 05:21:15;;;;;;;4.25;2.17;;;23.10;80.00;;;;;;10870052;32;20027;-76
2022/05/25 05:27:21;;;;;;;3.87;2.03;;;23.10;79.60;;;;;;10866404;32;20051;-75
2022/05/25 05:33:25;;;;;;;3.17;2.10;;;23.20;79.50;;;;;;10870342;32;20020;-74
2022/05/25 05:39:31;;;;;;;2.10;1.50;;;23.30;79.20;;;;;;10843193;32;20060;-76
2022/05/25 05:45:38;;;;;;;3.55;2.12;;;23.40;79.10;;;;;;10832782;32;20012;-75
2022/05/25 05:52:00;;;;;;;2.10;1.37;;;23.50;79.00;;;;;;10832506;32;20058;-75
2022/05/25 05:58:03;;;;;;;2.92;1.70;;;23.80;79.00;;;;;;10831759;32;20023;-74
2022/05/25 06:04:06;;;;;;;2.20;1.35;;;23.80;78.50;;;;;;10831811;32;20074;-76
2022/05/25 06:10:08;;;;;;;2.75;1.37;;;23.90;78.30;;;;;;10818232;32;20051;-74
2022/05/25 06:22:41;;;;;;;2.65;1.52;;;24.10;77.40;;;;;;10853357;32;20059;-78
2022/05/25 06:28:43;;;;;;;2.97;1.98;;;24.30;77.20;;;;;;10857474;32;20293;-76
2022/05/25 06:34:49;;;;;;;4.15;2.00;;;24.30;76.70;;;;;;10866309;32;20030;-73
2022/05/25 06:40:51;;;;;;;2.72;1.90;;;24.30;76.70;;;;;;10831794;32;20036;-73
2022/05/25 06:46:53;;;;;;;3.83;1.87;;;24.40;76.30;;;;;;10859763;32;20050;-73
2022/05/25 06:52:55;;;;;;;5.53;2.47;;;24.60;76.20;;;;;;10867790;32;20380;-73
2022/05/25 06:58:59;;;;;;;3.75;1.95;;;24.80;75.70;;;;;;10865933;32;20050;-72
2022/05/25 07:05:01;;;;;;;3.17;1.92;;;24.80;75.50;;;;;;10863865;32;20309;-78
2022/05/25 07:11:04;;;;;;;4.10;2.15;;;24.90;75.50;;;;;;10867460;32;20046;-72
2022/05/25 07:17:06;;;;;;;5.05;2.45;;;25.00;75.00;;;;;;10862835;32;20050;-74
2022/05/25 07:23:08;;;;;;;6.10;2.17;;;25.00;74.90;;;;;;10867909;32;20047;-73
2022/05/25 07:29:12;;;;;;;2.47;1.60;;;25.20;74.40;;;;;;10853821;32;20340;-75
2022/05/25 07:35:17;;;;;;;2.70;1.77;;;25.30;74.20;;;;;;10868501;32;20434;-73
2022/05/25 07:41:19;;;;;;;4.60;2.12;;;25.50;74.20;;;;;;10874289;32;20046;-74
2022/05/25 07:47:22;;;;;;;3.78;2.47;;;25.40;73.30;;;;;;10860522;32;20015;-73
2022/05/25 07:59:44;;;;;;;5.35;2.80;;;25.40;72.80;;;;;;10869465;32;20050;-76
2022/05/25 08:05:47;;;;;;;4.28;2.28;;;25.60;72.50;;;;;;10873521;32;20042;-72
2022/05/25 08:11:49;;;;;;;3.97;2.67;;;25.60;72.50;;;;;;10873411;32;20038;-73
2022/05/25 08:17:51;;;;;;;5.68;1.75;;;25.80;71.90;;;;;;10873086;32;20051;-74
2022/05/25 08:23:53;;;;;;;6.12;2.78;;;25.90;71.70;;;;;;10872555;32;20054;-76
2022/05/25 08:29:55;;;;;;;4.75;2.20;;;26.10;70.30;;;;;;10873195;32;20023;-76
2022/05/25 08:35:57;;;;;;;4.32;2.20;;;26.30;69.80;;;;;;10870576;32;20404;-76
2022/05/25 08:42:05;;;;;;;6.18;2.45;;;26.30;69.40;;;;;;10871071;32;20050;-77
2022/05/25 08:48:10;;;;;;;6.05;2.78;;;26.40;69.30;;;;;;10871771;32;20423;-76
2022/05/25 08:54:13;;;;;;;4.93;2.72;;;26.50;68.90;;;;;;10872112;32;20455;-77
2022/05/25 09:00:17;;;;;;;7.43;2.72;;;26.60;68.70;;;;;;10870068;32;20023;-77
2022/05/25 09:06:28;;;;;;;7.07;3.25;;;26.60;68.10;;;;;;10868286;32;20024;-77
2022/05/25 09:13:14;;;;;;;7.10;3.45;;;26.50;68.10;;;;;;10858902;32;20016;-76
2022/05/25 09:19:21;;;;;;;9.82;4.60;;;26.40;68.10;;;;;;10944388;32;20039;-76
2022/05/25 09:25:24;;;;;;;8.50;2.72;;;26.40;68.60;;;;;;10945599;32;20022;-75
2022/05/25 09:31:33;;;;;;;15.05;4.93;;;26.50;68.20;;;;;;10940738;32;20323;-75
2022/05/25 09:37:38;;;;;;;5.22;3.65;;;26.60;67.90;;;;;;10944481;32;20383;-76
2022/05/25 09:43:43;;;;;;;4.78;3.30;;;26.40;68.40;;;;;;10944894;32;20026;-75
2022/05/25 09:49:48;;;;;;;7.78;3.50;;;26.80;67.60;;;;;;10944628;32;20030;-76
2022/05/25 09:55:57;;;;;;;9.52;3.65;;;27.20;66.50;;;;;;10940191;32;20019;-76
2022/05/25 10:02:00;;;;;;;6.55;3.55;;;27.40;65.60;;;;;;10944299;32;20049;-73
2022/05/25 10:08:12;;;;;;;10.30;4.25;;;27.40;65.30;;;;;;10944176;32;20072;-76
2022/05/25 10:15:04;;;;;;;5.00;3.40;;;27.80;64.60;;;;;;10943752;32;20049;-73
2022/05/25 10:21:13;;;;;;;6.43;3.30;;;27.90;64.70;;;;;;10930173;32;20027;-74
2022/05/25 10:27:27;;;;;;;5.22;3.72;;;28.20;63.90;;;;;;10930170;32;20023;-75
2022/05/25 10:40:22;;;;;;;4.80;3.60;;;28.30;63.00;;;;;;10943025;32;20301;-76
2022/05/25 10:46:30;;;;;;;7.90;4.43;;;28.30;62.80;;;;;;10943333;32;20305;-74
2022/05/25 10:52:36;;;;;;;7.35;4.43;;;28.70;62.50;;;;;;10928458;32;20019;-76
2022/05/25 10:58:44;;;;;;;4.50;3.20;;;28.90;61.70;;;;;;10939697;32;20070;-75
2022/05/25 11:04:52;;;;;;;;;;;29.00;60.30;;;;;;10942649;32;20034;-75
2022/05/25 11:11:07;;;;;;;23.33;5.53;;;29.30;59.80;;;;;;10928080;32;19930;-76
2022/05/25 11:17:39;;;;;;;6.65;4.03;;;29.60;58.70;;;;;;10932123;32;20039;-76
2022/05/25 11:24:00;;;;;;;7.37;4.03;;;29.60;59.20;;;;;;10922896;32;20027;-76
2022/05/25 11:30:17;;;;;;;8.57;3.42;;;29.80;57.80;;;;;;10941974;32;20019;-71
2022/05/25 11:36:38;;;;;;;;;;;30.10;57.30;;;;;;10937607;32;20038;-76
2022/05/25 11:43:01;;;;;;;7.03;3.60;;;30.30;55.80;;;;;;10941623;32;19925;-76
2022/05/25 11:49:25;;;;;;;7.55;3.55;;;30.40;56.10;;;;;;10928153;32;20023;-73
2022/05/25 11:55:47;;;;;;;11.90;3.58;;;30.60;55.00;;;;;;10941427;32;20046;-73
2022/05/25 12:01:58;;;;;;;11.57;3.28;;;30.80;53.60;;;;;;10941230;32;20062;-73
2022/05/25 12:08:28;;;;;;;7.10;3.03;;;30.50;52.80;;;;;;10941131;32;20049;-76
2022/05/25 12:14:38;;;;;;;5.97;3.30;;;30.70;52.60;;;;;;10941131;32;20023;-77
2022/05/25 12:20:55;;;;;;;10.93;3.92;;;30.90;51.70;;;;;;10941910;32;20053;-74
2022/05/25 12:27:17;;;;;;;3.65;2.25;;;31.20;52.10;;;;;;10947997;32;20027;-73
2022/05/25 12:33:24;;;;;;;8.60;3.65;;;31.20;51.90;;;;;;10943560;32;20034;-74
2022/05/25 12:39:45;;;;;;;3.07;2.10;;;31.10;50.30;;;;;;10945209;32;20297;-73
2022/05/25 12:52:29;;;;;;;7.22;2.85;;;30.70;50.70;;;;;;10946181;32;20424;-75
2022/05/25 12:58:32;;;;;;;;;;;30.60;50.50;;;;;;10946610;32;20333;-74
2022/05/25 13:04:48;;;;;;;4.40;2.67;;;30.80;50.50;;;;;;10943592;32;19948;-73
2022/05/25 13:10:51;;;;;;;6.35;2.80;;;30.90;50.20;;;;;;10942170;32;20026;-74
2022/05/25 13:17:03;;;;;;;4.35;2.97;;;30.90;50.10;;;;;;10946205;32;20049;-74
2022/05/25 13:23:52;;;;;;;5.62;3.37;;;31.10;49.60;;;;;;10945719;32;20411;-74
2022/05/25 13:30:24;;;;;;;11.93;2.45;;;31.00;49.10;;;;;;10945712;32;20027;-76
2022/05/25 13:36:29;;;;;;;6.68;2.42;;;30.80;48.60;;;;;;10945165;32;20049;-73
2022/05/25 13:42:31;;;;;;;4.15;2.30;;;30.60;48.90;;;;;;10942282;32;20400;-74
2022/05/25 13:48:33;;;;;;;7.25;2.60;;;30.70;48.70;;;;;;10944804;32;20023;-77
2022/05/25 13:54:37;;;;;;;6.62;3.83;;;30.80;48.30;;;;;;10944780;32;20387;-73
2022/05/25 14:00:46;;;;;;;7.90;2.72;;;30.70;47.80;;;;;;10928218;32;20444;-75
2022/05/25 14:06:48;;;;;;;4.53;2.65;;;30.70;48.50;;;;;;10931510;32;20074;-73
2022/05/25 14:12:51;;;;;;;3.05;2.00;;;30.90;48.00;;;;;;10942880;32;20038;-74
2022/05/25 14:18:59;;;;;;;3.78;2.12;;;31.10;47.20;;;;;;10939757;32;20061;-75
2022/05/25 14:25:13;;;;;;;6.18;3.00;;;31.00;47.50;;;;;;10943649;32;20023;-73
2022/05/25 14:31:22;;;;;;;3.15;2.08;;;30.90;47.40;;;;;;10930916;32;20431;-73
2022/05/25 14:37:27;;;;;;;7.40;3.58;;;30.80;47.10;;;;;;10923482;32;20411;-72
2022/05/25 14:43:42;;;;;;;3.65;1.62;;;30.80;47.50;;;;;;10942194;32;20053;-76
2022/05/25 14:49:55;;;;;;;5.93;3.20;;;30.80;48.00;;;;;;10926635;32;20030;-75
2022/05/25 14:56:03;;;;;;;6.78;2.70;;;30.90;47.40;;;;;;10919371;32;20520;-74
2022/05/25 15:02:08;;;;;;;3.85;2.35;;;30.80;47.70;;;;;;10887936;32;20027;-73
2022/05/25 15:08:24;;;;;;;7.82;4.37;;;30.70;47.50;;;;;;10900515;32;20030;-75
2022/05/25 15:20:48;;;;;;;6.18;3.30;;;30.90;48.60;;;;;;10943198;32;20015;-74
2022/05/25 15:27:20;;;;;;;6.37;3.60;;;30.90;49.30;;;;;;10937927;32;20019;-75
2022/05/25 15:39:56;;;;;;;6.55;3.03;;;31.20;50.50;;;;;;10933427;32;20023;-74
2022/05/25 15:46:04;;;;;;;4.32;2.00;;;31.40;49.90;;;;;;10942017;32;20289;-73
2022/05/25 15:52:14;;;;;;;5.28;3.08;;;31.50;49.80;;;;;;10941440;32;20043;-75
2022/05/25 15:58:17;;;;;;;6.95;3.72;;;31.60;50.10;;;;;;10946919;32;20092;-75
2022/05/25 16:04:31;;;;;;;8.52;3.10;;;31.60;50.70;;;;;;10906994;32;20158;-75
2022/05/25 16:10:34;;;;;;;9.40;5.03;;;31.60;50.80;;;;;;10906675;32;20390;-75
2022/05/25 16:16:39;;;;;;;7.37;3.87;;;31.70;51.10;;;;;;10905586;32;20070;-75
2022/05/25 16:22:55;;;;;;;6.22;3.28;;;31.60;51.40;;;;;;10905275;32;20042;-75
2022/05/25 16:28:57;;;;;;;6.05;2.85;;;31.30;51.90;;;;;;10894752;32;20062;-74
2022/05/25 16:35:00;;;;;;;6.00;4.03;;;31.00;52.60;;;;;;10905822;32;20077;-75
2022/05/25 16:41:02;;;;;;;6.95;4.03;;;30.80;53.00;;;;;;10929289;32;20054;-75
2022/05/25 16:47:28;;;;;;;7.85;4.30;;;30.60;53.60;;;;;;10946186;32;20023;-74
2022/05/25 16:53:51;;;;;;;8.70;3.60;;;30.60;53.90;;;;;;10947022;32;20065;-74
2022/05/25 16:59:54;;;;;;;5.12;3.08;;;30.80;53.60;;;;;;10946552;32;20026;-75
2022/05/25 17:06:02;;;;;;;6.47;3.80;;;30.80;53.40;;;;;;10944269;32;20019;-74
2022/05/25 17:12:04;;;;;;;6.68;4.22;;;30.90;53.40;;;;;;10946015;32;20019;-75
2022/05/25 17:18:06;;;;;;;10.75;4.90;;;30.70;53.80;;;;;;10916002;26;20058;-73
2022/05/25 17:24:30;;;;;;;9.30;4.47;;;30.50;54.50;;;;;;10906938;32;20069;-74
2022/05/25 17:30:33;;;;;;;8.57;4.78;;;30.30;55.10;;;;;;10907878;32;20024;-74
2022/05/25 17:43:27;;;;;;;7.43;3.92;;;29.80;56.50;;;;;;10793251;32;20418;-74
2022/05/25 17:49:31;;;;;;;6.78;3.10;;;29.60;57.00;;;;;;10792003;32;20387;-74
2022/05/25 17:55:35;;;;;;;5.87;3.08;;;29.50;57.00;;;;;;10789275;32;20024;-73
2022/05/25 18:01:38;;;;;;;9.05;2.85;;;29.40;57.00;;;;;;10791140;33;20028;-74
2022/05/25 18:07:45;;;;;;;7.35;3.25;;;29.30;57.40;;;;;;10792180;33;20144;-74
2022/05/25 18:13:47;;;;;;;4.35;2.60;;;29.10;57.50;;;;;;10791907;33;20058;-73
2022/05/25 18:19:50;;;;;;;3.80;1.85;;;29.10;57.40;;;;;;10889070;32;20023;-75
2022/05/25 18:25:53;;;;;;;6.53;3.28;;;28.90;57.00;;;;;;10905938;32;20387;-73
2022/05/25 18:31:55;;;;;;;3.97;2.25;;;28.80;57.50;;;;;;10902253;32;20337;-73
2022/05/25 18:38:01;;;;;;;6.18;2.58;;;28.70;57.80;;;;;;10905626;32;20018;-74
2022/05/25 18:44:04;;;;;;;5.87;3.10;;;28.60;58.10;;;;;;10905248;32;20054;-74
2022/05/25 18:50:08;;;;;;;4.55;2.92;;;28.30;58.70;;;;;;10904553;32;20367;-74
2022/05/25 18:56:12;;;;;;;5.37;3.10;;;28.20;59.00;;;;;;10904684;32;20031;-73
2022/05/25 19:02:15;;;;;;;10.43;2.58;;;28.10;59.50;;;;;;10900958;32;20035;-74
2022/05/25 19:08:22;;;;;;;4.97;2.35;;;28.10;59.70;;;;;;10903351;32;20057;-74
2022/05/25 19:14:24;;;;;;;3.40;1.97;;;28.10;59.70;;;;;;10904632;32;20036;-74
2022/05/25 19:27:45;;;;;;;6.67;2.43;;;28.00;60.30;;;;;;10902309;32;20035;-73
2022/05/25 19:33:48;;;;;;;8.48;2.20;;;27.90;60.40;;;;;;10916588;32;20028;-72
2022/05/25 19:39:55;;;;;;;2.67;1.80;;;27.90;60.40;;;;;;10914819;32;20073;-73
2022/05/25 19:45:58;;;;;;;7.57;2.92;;;27.80;60.60;;;;;;10903274;32;20430;-73
2022/05/25 19:52:10;;;;;;;6.68;2.60;;;27.80;60.90;;;;;;10913549;32;20046;-72
2022/05/25 19:58:29;;;;;;;6.47;2.87;;;27.80;60.90;;;;;;10916342;32;20024;-72
2022/05/25 20:04:55;;;;;;;3.90;1.95;;;27.80;61.40;;;;;;10911909;32;20053;-73
2022/05/25 20:10:57;;;;;;;4.65;2.58;;;27.70;61.80;;;;;;10916101;32;20015;-73
2022/05/25 20:16:59;;;;;;;5.40;2.40;;;27.60;62.10;;;;;;10915591;32;20019;-73
2022/05/25 20:23:03;;;;;;;6.20;1.80;;;27.50;62.40;;;;;;10902280;32;20396;-73
2022/05/25 20:29:05;;;;;;;5.72;1.83;;;27.50;62.70;;;;;;10915788;32;20042;-73
2022/05/25 20:35:08;;;;;;;9.85;2.53;;;27.40;62.70;;;;;;10912228;32;20403;-73
2022/05/25 20:41:10;;;;;;;8.07;3.25;;;27.40;62.70;;;;;;10913004;32;20023;-74
2022/05/25 20:47:12;;;;;;;7.22;3.62;;;27.30;63.40;;;;;;10896170;32;20422;-74
2022/05/25 20:53:14;;;;;;;8.45;2.97;;;27.00;64.20;;;;;;10905443;32;20422;-74
2022/05/25 20:59:17;;;;;;;4.47;2.40;;;26.80;65.50;;;;;;10895519;32;20031;-73
2022/05/25 21:05:19;;;;;;;5.40;2.45;;;26.80;65.60;;;;;;10908845;32;20023;-73
2022/05/25 21:11:23;;;;;;;4.45;2.37;;;26.90;65.40;;;;;;10908692;32;20042;-73
2022/05/25 21:17:28;;;;;;;4.57;2.30;;;27.00;65.10;;;;;;10908630;32;20023;-73
2022/05/25 21:23:31;;;;;;;8.57;2.47;;;27.00;65.00;;;;;;10908322;32;20058;-73
2022/05/25 21:29:34;;;;;;;3.60;2.05;;;26.80;65.10;;;;;;10904085;32;20331;-73
2022/05/25 21:35:36;;;;;;;4.68;2.67;;;26.80;65.50;;;;;;10891435;32;20034;-73
2022/05/25 21:41:39;;;;;;;3.00;2.05;;;26.80;65.50;;;;;;10894451;32;20023;-73
2022/05/25 21:54:02;;;;;;;3.60;2.42;;;26.70;66.40;;;;;;10907206;32;20046;-73
2022/05/25 22:00:08;;;;;;;7.18;2.78;;;26.60;66.80;;;;;;10907168;32;20384;-73
2022/05/25 22:06:14;;;;;;;7.25;2.90;;;26.60;66.50;;;;;;10902755;32;20031;-73
2022/05/25 22:12:16;;;;;;;4.55;2.78;;;26.50;66.50;;;;;;10902530;32;20323;-73
2022/05/25 22:18:18;;;;;;;4.30;2.40;;;26.40;66.50;;;;;;10906405;32;20031;-73
2022/05/25 22:24:21;;;;;;;5.37;2.83;;;26.50;66.40;;;;;;10906225;32;20050;-73
2022/05/25 22:30:23;;;;;;;5.80;2.47;;;26.50;66.40;;;;;;10906011;32;20053;-73
2022/05/25 22:36:56;;;;;;;4.28;2.30;;;26.40;66.50;;;;;;10905912;32;20019;-73
2022/05/25 22:42:59;;;;;;;5.32;2.55;;;26.50;66.50;;;;;;10905608;32;20027;-73
2022/05/25 22:49:02;;;;;;;6.60;3.20;;;26.30;67.50;;;;;;10905296;32;20023;-73
2022/05/25 22:55:05;;;;;;;4.62;2.80;;;26.30;67.60;;;;;;10905261;32;20023;-73
2022/05/25 23:01:08;;;;;;;5.93;2.85;;;26.20;67.60;;;;;;10905059;32;20023;-73
2022/05/25 23:07:14;;;;;;;3.97;2.53;;;26.20;67.60;;;;;;10904547;32;20224;-73
2022/05/25 23:13:16;;;;;;;4.80;2.72;;;26.30;67.90;;;;;;10900647;32;20019;-73
2022/05/25 23:19:18;;;;;;;5.30;2.60;;;26.20;68.30;;;;;;10904474;32;20050;-73
2022/05/25 23:25:20;;;;;;;5.03;3.00;;;26.20;68.70;;;;;;10904356;32;20063;-73
2022/05/25 23:31:22;;;;;;;5.12;3.03;;;26.10;68.90;;;;;;10904401;32;20384;-73
2022/05/25 23:37:25;;;;;;;3.95;2.65;;;26.10;68.80;;;;;;10904001;32;20050;-73
2022/05/25 23:49:47;;;;;;;4.50;2.95;;;26.00;69.60;;;;;;10900059;32;20018;-73
2022/05/25 23:55:49;;;;;;;5.85;3.35;;;26.00;69.90;;;;;;10904169;32;20028;-73
